Sharyland, Texas
Current Conditions -  °F | °C
As of 5:53 PM on Friday 31 Oct 2014 (Local Time) from KMFE Reporting Station
Broken Clouds Broken Clouds  
Wind Chill: 77°   Ceiling: 4700
Heat Index: 79°   Visibility: 10mi
Dew Point: 59°   Wind: 9mph
Humidity: 54%   Direction: 20°NNE
Pressure: 30.17"   Gusts: NA
Location:  26.2167°N, 98.325°W
Report Text: KMFE 312253Z 02008KT 10SM BKN047 25/15 A3017 RMK AO2 SLP213 T02500150 $
Loading
Personal Weather Stations






























Interactive Weather Map
Tropical Storm Tracking
New forecast layout! Learn more

10-Day Weather Forecast

Advertisements
Track Severe Weather on mobile